Terminal Aerodrome Forecast
Issued by NWS

Home | Current Version | Previous Version | Text Only | Print | Product List | Glossary Off
Versions: 1 2 3 4 5 6 7 8 9 10 11 12 13 14 15 16 17

152
FTUS43 KMPX 201444 AAA
TAFAXN
TAF AMD
KAXN 201444Z 2015/2112 35010KT 5SM -SN BR SCT025 OVC050
     FM201700 33012G19KT P6SM OVC020
     FM202000 31015G23KT P6SM OVC035
     FM210300 29011KT P6SM SCT080
     FM210800 26008KT P6SM FEW250=

USA.gov is the U.S. government's official web portal to all federal, state and local government web resources and services.